sensor_id;sensor_type;location;lat;lon;timestamp;P1;durP1;ratioP1;P2;durP2;ratioP2
4873;SDS011;2451;49.970;9.068;2023-01-15T00:00:59;0.82;;;0.70;;
4873;SDS011;2451;49.970;9.068;2023-01-15T00:03:26;3.15;;;1.75;;
4873;SDS011;2451;49.970;9.068;2023-01-15T00:05:52;1.42;;;0.90;;
4873;SDS011;2451;49.970;9.068;2023-01-15T00:08:18;2.10;;;1.25;;
4873;SDS011;2451;49.970;9.068;2023-01-15T00:10:43;3.33;;;1.10;;
4873;SDS011;2451;49.970;9.068;2023-01-15T00:13:09;3.42;;;1.30;;
4873;SDS011;2451;49.970;9.068;2023-01-15T00:15:35;3.45;;;0.90;;
4873;SDS011;2451;49.970;9.068;2023-01-15T00:18:01;1.52;;;0.82;;
4873;SDS011;2451;49.970;9.068;2023-01-15T00:20:27;1.05;;;0.88;;
4873;SDS011;2451;49.970;9.068;2023-01-15T00:22:53;4.07;;;0.80;;
4873;SDS011;2451;49.970;9.068;2023-01-15T00:25:18;1.67;;;1.30;;
4873;SDS011;2451;49.970;9.068;2023-01-15T00:28:02;0.63;;;0.63;;
4873;SDS011;2451;49.970;9.068;2023-01-15T00:30:28;1.73;;;0.70;;
4873;SDS011;2451;49.970;9.068;2023-01-15T00:32:54;1.55;;;0.75;;
4873;SDS011;2451;49.970;9.068;2023-01-15T00:35:22;1.05;;;0.70;;
4873;SDS011;2451;49.970;9.068;2023-01-15T00:37:50;0.50;;;0.50;;
4873;SDS011;2451;49.970;9.068;2023-01-15T00:40:17;0.77;;;0.70;;
4873;SDS011;2451;49.970;9.068;2023-01-15T00:42:44;0.70;;;0.70;;
4873;SDS011;2451;49.970;9.068;2023-01-15T00:45:10;1.02;;;0.70;;
4873;SDS011;2451;49.970;9.068;2023-01-15T00:47:37;0.73;;;0.65;;
4873;SDS011;2451;49.970;9.068;2023-01-15T00:50:04;1.15;;;0.93;;
4873;SDS011;2451;49.970;9.068;2023-01-15T00:52:31;0.93;;;0.77;;
4873;SDS011;2451;49.970;9.068;2023-01-15T00:54:57;0.90;;;0.50;;
4873;SDS011;2451;49.970;9.068;2023-01-15T00:57:23;0.80;;;0.60;;
4873;SDS011;2451;49.970;9.068;2023-01-15T00:59:48;0.70;;;0.70;;
4873;SDS011;2451;49.970;9.068;2023-01-15T01:02:14;0.93;;;0.55;;
4873;SDS011;2451;49.970;9.068;2023-01-15T01:04:40;0.60;;;0.60;;
4873;SDS011;2451;49.970;9.068;2023-01-15T01:07:06;0.68;;;0.60;;
4873;SDS011;2451;49.970;9.068;2023-01-15T01:09:31;0.73;;;0.50;;
4873;SDS011;2451;49.970;9.068;2023-01-15T01:11:57;0.47;;;0.47;;
4873;SDS011;2451;49.970;9.068;2023-01-15T01:14:22;0.60;;;0.60;;
4873;SDS011;2451;49.970;9.068;2023-01-15T01:16:48;1.05;;;0.60;;
4873;SDS011;2451;49.970;9.068;2023-01-15T01:19:18;0.95;;;0.60;;
4873;SDS011;2451;49.970;9.068;2023-01-15T01:21:46;0.68;;;0.50;;
4873;SDS011;2451;49.970;9.068;2023-01-15T01:24:14;1.40;;;0.60;;
4873;SDS011;2451;49.970;9.068;2023-01-15T01:26:41;1.20;;;0.52;;
4873;SDS011;2451;49.970;9.068;2023-01-15T01:29:17;0.70;;;0.70;;
4873;SDS011;2451;49.970;9.068;2023-01-15T01:31:44;1.35;;;0.60;;
4873;SDS011;2451;49.970;9.068;2023-01-15T01:34:10;1.15;;;0.70;;
4873;SDS011;2451;49.970;9.068;2023-01-15T01:36:37;1.38;;;0.70;;
4873;SDS011;2451;49.970;9.068;2023-01-15T01:39:05;0.95;;;0.60;;
4873;SDS011;2451;49.970;9.068;2023-01-15T01:41:33;1.48;;;0.70;;
4873;SDS011;2451;49.970;9.068;2023-01-15T01:46:50;0.80;;;0.57;;
4873;SDS011;2451;49.970;9.068;2023-01-15T01:49:15;0.63;;;0.63;;
4873;SDS011;2451;49.970;9.068;2023-01-15T01:51:42;2.80;;;0.90;;
4873;SDS011;2451;49.970;9.068;2023-01-15T01:54:12;1.27;;;0.60;;
4873;SDS011;2451;49.970;9.068;2023-01-15T01:56:41;1.38;;;0.90;;
4873;SDS011;2451;49.970;9.068;2023-01-15T01:59:07;0.82;;;0.60;;
4873;SDS011;2451;49.970;9.068;2023-01-15T02:01:36;1.60;;;0.60;;
4873;SDS011;2451;49.970;9.068;2023-01-15T02:04:02;2.35;;;0.77;;
4873;SDS011;2451;49.970;9.068;2023-01-15T02:06:30;0.40;;;0.40;;
4873;SDS011;2451;49.970;9.068;2023-01-15T02:08:56;1.63;;;0.80;;
4873;SDS011;2451;49.970;9.068;2023-01-15T02:11:22;0.77;;;0.70;;
4873;SDS011;2451;49.970;9.068;2023-01-15T02:27:32;0.95;;;0.70;;
4873;SDS011;2451;49.970;9.068;2023-01-15T02:35:17;0.75;;;0.68;;
4873;SDS011;2451;49.970;9.068;2023-01-15T02:37:52;2.05;;;0.50;;
4873;SDS011;2451;49.970;9.068;2023-01-15T02:40:22;1.90;;;0.60;;
4873;SDS011;2451;49.970;9.068;2023-01-15T02:42:49;0.82;;;0.50;;
4873;SDS011;2451;49.970;9.068;2023-01-15T02:45:16;1.85;;;0.40;;
4873;SDS011;2451;49.970;9.068;2023-01-15T02:47:48;0.68;;;0.40;;
4873;SDS011;2451;49.970;9.068;2023-01-15T02:50:16;0.90;;;0.40;;
4873;SDS011;2451;49.970;9.068;2023-01-15T02:52:48;0.35;;;0.30;;
4873;SDS011;2451;49.970;9.068;2023-01-15T02:55:19;0.30;;;0.30;;
4873;SDS011;2451;49.970;9.068;2023-01-15T02:57:49;1.00;;;0.40;;
4873;SDS011;2451;49.970;9.068;2023-01-15T03:00:20;0.73;;;0.40;;
4873;SDS011;2451;49.970;9.068;2023-01-15T03:02:49;0.75;;;0.40;;
4873;SDS011;2451;49.970;9.068;2023-01-15T03:05:38;0.80;;;0.32;;
4873;SDS011;2451;49.970;9.068;2023-01-15T03:08:07;1.42;;;0.50;;
4873;SDS011;2451;49.970;9.068;2023-01-15T03:10:37;0.60;;;0.30;;
4873;SDS011;2451;49.970;9.068;2023-01-15T03:13:07;0.70;;;0.40;;
4873;SDS011;2451;49.970;9.068;2023-01-15T03:18:29;0.95;;;0.43;;
4873;SDS011;2451;49.970;9.068;2023-01-15T03:21:07;1.08;;;0.55;;
4873;SDS011;2451;49.970;9.068;2023-01-15T03:23:37;1.83;;;0.55;;
4873;SDS011;2451;49.970;9.068;2023-01-15T03:26:07;1.40;;;0.45;;
4873;SDS011;2451;49.970;9.068;2023-01-15T03:28:34;0.77;;;0.40;;
4873;SDS011;2451;49.970;9.068;2023-01-15T03:31:02;0.40;;;0.40;;
4873;SDS011;2451;49.970;9.068;2023-01-15T03:33:28;0.40;;;0.40;;
4873;SDS011;2451;49.970;9.068;2023-01-15T03:35:55;0.65;;;0.50;;
4873;SDS011;2451;49.970;9.068;2023-01-15T03:38:27;0.70;;;0.50;;
4873;SDS011;2451;49.970;9.068;2023-01-15T03:57:40;2.35;;;0.70;;
4873;SDS011;2451;49.970;9.068;2023-01-15T04:00:14;0.88;;;0.50;;
4873;SDS011;2451;49.970;9.068;2023-01-15T04:02:48;0.90;;;0.65;;
4873;SDS011;2451;49.970;9.068;2023-01-15T04:05:16;0.60;;;0.60;;
4873;SDS011;2451;49.970;9.068;2023-01-15T04:07:42;1.63;;;0.68;;
4873;SDS011;2451;49.970;9.068;2023-01-15T04:10:13;1.45;;;0.60;;
4873;SDS011;2451;49.970;9.068;2023-01-15T04:12:39;2.28;;;0.52;;
4873;SDS011;2451;49.970;9.068;2023-01-15T04:15:05;0.65;;;0.57;;
4873;SDS011;2451;49.970;9.068;2023-01-15T04:17:31;1.60;;;0.77;;
4873;SDS011;2451;49.970;9.068;2023-01-15T04:19:56;1.73;;;1.13;;
4873;SDS011;2451;49.970;9.068;2023-01-15T04:22:22;0.88;;;0.50;;
4873;SDS011;2451;49.970;9.068;2023-01-15T04:24:47;0.50;;;0.50;;
4873;SDS011;2451;49.970;9.068;2023-01-15T04:27:13;0.93;;;0.52;;
4873;SDS011;2451;49.970;9.068;2023-01-15T04:29:38;0.38;;;0.38;;
4873;SDS011;2451;49.970;9.068;2023-01-15T04:32:04;2.17;;;0.60;;
4873;SDS011;2451;49.970;9.068;2023-01-15T04:34:30;0.43;;;0.40;;
4873;SDS011;2451;49.970;9.068;2023-01-15T04:36:55;0.50;;;0.50;;
4873;SDS011;2451;49.970;9.068;2023-01-15T04:39:22;1.33;;;0.60;;
4873;SDS011;2451;49.970;9.068;2023-01-15T04:41:47;0.95;;;0.60;;
4873;SDS011;2451;49.970;9.068;2023-01-15T04:44:32;0.73;;;0.50;;
4873;SDS011;2451;49.970;9.068;2023-01-15T04:46:59;3.72;;;0.60;;
4873;SDS011;2451;49.970;9.068;2023-01-15T04:49:25;1.50;;;0.60;;
4873;SDS011;2451;49.970;9.068;2023-01-15T04:51:51;1.50;;;0.55;;
4873;SDS011;2451;49.970;9.068;2023-01-15T04:54:17;0.40;;;0.40;;
4873;SDS011;2451;49.970;9.068;2023-01-15T04:56:44;1.02;;;0.40;;
4873;SDS011;2451;49.970;9.068;2023-01-15T04:59:12;0.38;;;0.30;;
4873;SDS011;2451;49.970;9.068;2023-01-15T05:01:39;1.20;;;0.60;;
4873;SDS011;2451;49.970;9.068;2023-01-15T05:04:06;1.25;;;0.70;;
4873;SDS011;2451;49.970;9.068;2023-01-15T05:06:32;0.50;;;0.50;;
4873;SDS011;2451;49.970;9.068;2023-01-15T05:08:58;0.63;;;0.50;;
4873;SDS011;2451;49.970;9.068;2023-01-15T05:11:25;1.52;;;0.60;;
4873;SDS011;2451;49.970;9.068;2023-01-15T05:13:51;2.78;;;0.73;;
4873;SDS011;2451;49.970;9.068;2023-01-15T05:16:17;0.90;;;0.63;;
4873;SDS011;2451;49.970;9.068;2023-01-15T05:18:49;0.50;;;0.50;;
4873;SDS011;2451;49.970;9.068;2023-01-15T05:21:17;1.17;;;0.60;;
4873;SDS011;2451;49.970;9.068;2023-01-15T05:23:45;0.90;;;0.57;;
4873;SDS011;2451;49.970;9.068;2023-01-15T05:26:11;1.30;;;0.50;;
4873;SDS011;2451;49.970;9.068;2023-01-15T05:28:37;2.33;;;0.70;;
4873;SDS011;2451;49.970;9.068;2023-01-15T05:31:06;1.65;;;0.80;;
4873;SDS011;2451;49.970;9.068;2023-01-15T05:33:33;2.75;;;0.70;;
4873;SDS011;2451;49.970;9.068;2023-01-15T05:36:03;1.55;;;0.50;;
4873;SDS011;2451;49.970;9.068;2023-01-15T05:38:30;0.88;;;0.43;;
4873;SDS011;2451;49.970;9.068;2023-01-15T05:40:56;1.55;;;0.70;;
4873;SDS011;2451;49.970;9.068;2023-01-15T05:43:22;1.27;;;0.60;;
4873;SDS011;2451;49.970;9.068;2023-01-15T05:45:48;1.90;;;0.75;;
4873;SDS011;2451;49.970;9.068;2023-01-15T05:48:13;1.35;;;0.60;;
4873;SDS011;2451;49.970;9.068;2023-01-15T05:50:39;1.00;;;0.60;;
4873;SDS011;2451;49.970;9.068;2023-01-15T05:53:05;1.85;;;0.60;;
4873;SDS011;2451;49.970;9.068;2023-01-15T05:55:31;0.68;;;0.60;;
4873;SDS011;2451;49.970;9.068;2023-01-15T05:57:57;0.82;;;0.57;;
4873;SDS011;2451;49.970;9.068;2023-01-15T06:00:23;1.38;;;0.65;;
4873;SDS011;2451;49.970;9.068;2023-01-15T06:02:49;0.73;;;0.55;;
4873;SDS011;2451;49.970;9.068;2023-01-15T06:05:15;1.52;;;0.68;;
4873;SDS011;2451;49.970;9.068;2023-01-15T06:07:46;0.60;;;0.60;;
4873;SDS011;2451;49.970;9.068;2023-01-15T06:10:13;2.60;;;0.80;;
4873;SDS011;2451;49.970;9.068;2023-01-15T06:12:42;1.20;;;0.70;;
4873;SDS011;2451;49.970;9.068;2023-01-15T06:15:07;1.02;;;0.70;;
4873;SDS011;2451;49.970;9.068;2023-01-15T06:17:34;1.55;;;0.68;;
4873;SDS011;2451;49.970;9.068;2023-01-15T06:19:59;0.55;;;0.55;;
4873;SDS011;2451;49.970;9.068;2023-01-15T06:22:25;1.42;;;0.70;;
4873;SDS011;2451;49.970;9.068;2023-01-15T06:24:50;0.70;;;0.70;;
4873;SDS011;2451;49.970;9.068;2023-01-15T06:27:16;1.65;;;1.23;;
4873;SDS011;2451;49.970;9.068;2023-01-15T06:29:41;1.23;;;1.10;;
4873;SDS011;2451;49.970;9.068;2023-01-15T06:32:07;3.97;;;1.08;;
4873;SDS011;2451;49.970;9.068;2023-01-15T06:34:32;2.28;;;0.80;;
4873;SDS011;2451;49.970;9.068;2023-01-15T06:36:58;1.77;;;0.90;;
4873;SDS011;2451;49.970;9.068;2023-01-15T06:39:23;1.65;;;0.80;;
4873;SDS011;2451;49.970;9.068;2023-01-15T06:41:49;2.80;;;0.98;;
4873;SDS011;2451;49.970;9.068;2023-01-15T06:44:33;1.27;;;1.00;;
4873;SDS011;2451;49.970;9.068;2023-01-15T06:47:18;2.42;;;1.30;;
4873;SDS011;2451;49.970;9.068;2023-01-15T06:49:44;4.05;;;1.90;;
4873;SDS011;2451;49.970;9.068;2023-01-15T06:52:10;1.42;;;1.33;;
4873;SDS011;2451;49.970;9.068;2023-01-15T06:54:35;2.47;;;1.27;;
4873;SDS011;2451;49.970;9.068;2023-01-15T06:57:01;4.80;;;2.35;;
4873;SDS011;2451;49.970;9.068;2023-01-15T06:59:27;7.63;;;2.70;;
4873;SDS011;2451;49.970;9.068;2023-01-15T07:01:52;2.17;;;1.50;;
4873;SDS011;2451;49.970;9.068;2023-01-15T07:04:18;5.43;;;2.00;;
4873;SDS011;2451;49.970;9.068;2023-01-15T07:06:44;1.77;;;1.15;;
4873;SDS011;2451;49.970;9.068;2023-01-15T07:09:09;1.08;;;1.00;;
4873;SDS011;2451;49.970;9.068;2023-01-15T07:11:35;1.23;;;0.88;;
4873;SDS011;2451;49.970;9.068;2023-01-15T07:14:13;1.52;;;1.10;;
4873;SDS011;2451;49.970;9.068;2023-01-15T07:16:41;4.13;;;1.23;;
4873;SDS011;2451;49.970;9.068;2023-01-15T07:19:07;1.80;;;1.00;;
4873;SDS011;2451;49.970;9.068;2023-01-15T07:21:33;2.35;;;1.10;;
4873;SDS011;2451;49.970;9.068;2023-01-15T07:23:59;3.47;;;1.63;;
4873;SDS011;2451;49.970;9.068;2023-01-15T07:26:25;4.78;;;1.90;;
4873;SDS011;2451;49.970;9.068;2023-01-15T07:28:51;14.90;;;6.40;;
4873;SDS011;2451;49.970;9.068;2023-01-15T07:31:16;17.08;;;8.27;;
4873;SDS011;2451;49.970;9.068;2023-01-15T07:33:42;14.07;;;6.95;;
4873;SDS011;2451;49.970;9.068;2023-01-15T07:36:08;12.18;;;6.75;;
4873;SDS011;2451;49.970;9.068;2023-01-15T07:38:33;3.63;;;1.70;;
4873;SDS011;2451;49.970;9.068;2023-01-15T07:40:59;2.88;;;1.20;;
4873;SDS011;2451;49.970;9.068;2023-01-15T07:43:43;0.70;;;0.70;;
4873;SDS011;2451;49.970;9.068;2023-01-15T07:46:27;1.85;;;1.27;;
4873;SDS011;2451;49.970;9.068;2023-01-15T07:49:12;2.10;;;1.10;;
4873;SDS011;2451;49.970;9.068;2023-01-15T07:51:57;3.78;;;1.13;;
4873;SDS011;2451;49.970;9.068;2023-01-15T07:54:22;1.63;;;0.90;;
4873;SDS011;2451;49.970;9.068;2023-01-15T07:56:48;2.75;;;0.70;;
4873;SDS011;2451;49.970;9.068;2023-01-15T07:59:16;1.48;;;0.70;;
4873;SDS011;2451;49.970;9.068;2023-01-15T08:01:44;4.10;;;2.00;;
4873;SDS011;2451;49.970;9.068;2023-01-15T08:04:10;7.38;;;4.80;;
4873;SDS011;2451;49.970;9.068;2023-01-15T08:06:36;5.05;;;2.42;;
4873;SDS011;2451;49.970;9.068;2023-01-15T08:09:02;4.85;;;2.20;;
4873;SDS011;2451;49.970;9.068;2023-01-15T08:11:28;5.28;;;1.50;;
4873;SDS011;2451;49.970;9.068;2023-01-15T08:14:31;7.13;;;5.30;;
4873;SDS011;2451;49.970;9.068;2023-01-15T08:17:16;3.05;;;2.15;;
4873;SDS011;2451;49.970;9.068;2023-01-15T08:19:44;3.38;;;1.50;;
4873;SDS011;2451;49.970;9.068;2023-01-15T08:22:10;3.78;;;2.03;;
4873;SDS011;2451;49.970;9.068;2023-01-15T08:24:35;6.55;;;1.40;;
4873;SDS011;2451;49.970;9.068;2023-01-15T08:27:01;4.13;;;1.60;;
4873;SDS011;2451;49.970;9.068;2023-01-15T08:29:27;6.13;;;2.13;;
4873;SDS011;2451;49.970;9.068;2023-01-15T08:31:53;11.45;;;5.93;;
4873;SDS011;2451;49.970;9.068;2023-01-15T08:34:18;6.25;;;3.67;;
4873;SDS011;2451;49.970;9.068;2023-01-15T08:36:44;4.25;;;2.45;;
4873;SDS011;2451;49.970;9.068;2023-01-15T08:39:10;4.75;;;2.50;;
4873;SDS011;2451;49.970;9.068;2023-01-15T08:41:35;5.15;;;2.70;;
4873;SDS011;2451;49.970;9.068;2023-01-15T08:44:01;6.68;;;3.45;;
4873;SDS011;2451;49.970;9.068;2023-01-15T08:46:26;4.82;;;2.10;;
4873;SDS011;2451;49.970;9.068;2023-01-15T08:48:52;5.13;;;2.67;;
4873;SDS011;2451;49.970;9.068;2023-01-15T08:51:18;2.58;;;1.33;;
4873;SDS011;2451;49.970;9.068;2023-01-15T08:53:43;2.72;;;1.60;;
4873;SDS011;2451;49.970;9.068;2023-01-15T08:56:16;3.08;;;1.77;;
4873;SDS011;2451;49.970;9.068;2023-01-15T08:58:43;2.15;;;0.80;;
4873;SDS011;2451;49.970;9.068;2023-01-15T09:01:09;1.35;;;0.90;;
4873;SDS011;2451;49.970;9.068;2023-01-15T09:03:39;2.88;;;1.10;;
4873;SDS011;2451;49.970;9.068;2023-01-15T09:06:06;0.70;;;0.70;;
4873;SDS011;2451;49.970;9.068;2023-01-15T09:08:32;4.85;;;1.67;;
4873;SDS011;2451;49.970;9.068;2023-01-15T09:10:58;1.48;;;0.80;;
4873;SDS011;2451;49.970;9.068;2023-01-15T09:13:24;1.92;;;0.90;;
4873;SDS011;2451;49.970;9.068;2023-01-15T09:15:52;1.05;;;0.73;;
4873;SDS011;2451;49.970;9.068;2023-01-15T09:18:18;2.25;;;1.17;;
4873;SDS011;2451;49.970;9.068;2023-01-15T09:20:50;3.35;;;1.13;;
4873;SDS011;2451;49.970;9.068;2023-01-15T09:23:15;2.25;;;0.80;;
4873;SDS011;2451;49.970;9.068;2023-01-15T09:25:49;1.10;;;0.63;;
4873;SDS011;2451;49.970;9.068;2023-01-15T09:28:22;1.05;;;0.77;;
4873;SDS011;2451;49.970;9.068;2023-01-15T09:30:48;0.80;;;0.50;;
4873;SDS011;2451;49.970;9.068;2023-01-15T09:33:14;1.35;;;0.70;;
4873;SDS011;2451;49.970;9.068;2023-01-15T09:35:40;0.93;;;0.57;;
4873;SDS011;2451;49.970;9.068;2023-01-15T09:38:09;1.67;;;0.90;;
4873;SDS011;2451;49.970;9.068;2023-01-15T09:43:12;1.30;;;0.85;;
4873;SDS011;2451;49.970;9.068;2023-01-15T09:45:48;1.55;;;0.77;;
4873;SDS011;2451;49.970;9.068;2023-01-15T09:48:42;1.55;;;0.98;;
4873;SDS011;2451;49.970;9.068;2023-01-15T09:51:23;6.07;;;2.50;;
4873;SDS011;2451;49.970;9.068;2023-01-15T09:56:44;3.10;;;1.75;;
4873;SDS011;2451;49.970;9.068;2023-01-15T09:59:17;2.17;;;1.30;;
4873;SDS011;2451;49.970;9.068;2023-01-15T10:01:53;1.23;;;1.13;;
4873;SDS011;2451;49.970;9.068;2023-01-15T10:09:48;4.22;;;2.33;;
4873;SDS011;2451;49.970;9.068;2023-01-15T10:12:27;2.72;;;1.58;;
4873;SDS011;2451;49.970;9.068;2023-01-15T10:20:05;3.88;;;1.33;;
4873;SDS011;2451;49.970;9.068;2023-01-15T10:29:09;2.55;;;1.70;;
4873;SDS011;2451;49.970;9.068;2023-01-15T10:34:56;2.67;;;1.52;;
4873;SDS011;2451;49.970;9.068;2023-01-15T10:46:40;1.88;;;1.20;;
4873;SDS011;2451;49.970;9.068;2023-01-15T10:49:13;1.00;;;1.00;;
4873;SDS011;2451;49.970;9.068;2023-01-15T10:57:16;2.58;;;0.88;;
4873;SDS011;2451;49.970;9.068;2023-01-15T11:00:02;3.78;;;1.10;;
4873;SDS011;2451;49.970;9.068;2023-01-15T11:02:45;2.65;;;1.30;;
4873;SDS011;2451;49.970;9.068;2023-01-15T11:05:28;0.85;;;0.80;;
4873;SDS011;2451;49.970;9.068;2023-01-15T11:07:56;4.63;;;1.95;;
4873;SDS011;2451;49.970;9.068;2023-01-15T11:10:23;1.27;;;0.70;;
4873;SDS011;2451;49.970;9.068;2023-01-15T11:12:50;0.73;;;0.73;;
4873;SDS011;2451;49.970;9.068;2023-01-15T11:15:55;1.75;;;0.90;;
4873;SDS011;2451;49.970;9.068;2023-01-15T11:18:39;1.92;;;0.70;;
4873;SDS011;2451;49.970;9.068;2023-01-15T11:21:26;1.10;;;0.70;;
4873;SDS011;2451;49.970;9.068;2023-01-15T11:23:54;1.40;;;0.70;;
4873;SDS011;2451;49.970;9.068;2023-01-15T11:26:22;1.20;;;0.68;;
4873;SDS011;2451;49.970;9.068;2023-01-15T11:28:51;1.30;;;0.60;;
4873;SDS011;2451;49.970;9.068;2023-01-15T11:31:18;2.83;;;0.75;;
4873;SDS011;2451;49.970;9.068;2023-01-15T11:34:05;1.23;;;0.60;;
4873;SDS011;2451;49.970;9.068;2023-01-15T11:36:31;2.13;;;0.47;;
4873;SDS011;2451;49.970;9.068;2023-01-15T11:38:57;4.40;;;0.93;;
4873;SDS011;2451;49.970;9.068;2023-01-15T11:41:26;2.20;;;0.98;;
4873;SDS011;2451;49.970;9.068;2023-01-15T11:44:35;2.78;;;1.15;;
4873;SDS011;2451;49.970;9.068;2023-01-15T11:47:20;1.33;;;0.70;;
4873;SDS011;2451;49.970;9.068;2023-01-15T11:50:16;1.80;;;0.70;;
4873;SDS011;2451;49.970;9.068;2023-01-15T11:53:01;3.60;;;1.70;;
4873;SDS011;2451;49.970;9.068;2023-01-15T11:55:27;3.58;;;0.73;;
4873;SDS011;2451;49.970;9.068;2023-01-15T11:57:53;2.65;;;0.88;;
4873;SDS011;2451;49.970;9.068;2023-01-15T12:00:31;2.92;;;0.90;;
4873;SDS011;2451;49.970;9.068;2023-01-15T12:03:05;1.38;;;0.60;;
4873;SDS011;2451;49.970;9.068;2023-01-15T12:05:44;2.30;;;0.80;;
4873;SDS011;2451;49.970;9.068;2023-01-15T12:08:27;1.80;;;0.65;;
4873;SDS011;2451;49.970;9.068;2023-01-15T12:10:58;1.65;;;1.00;;
4873;SDS011;2451;49.970;9.068;2023-01-15T12:16:21;2.05;;;0.85;;
4873;SDS011;2451;49.970;9.068;2023-01-15T12:41:56;2.20;;;1.10;;
4873;SDS011;2451;49.970;9.068;2023-01-15T12:44:49;3.40;;;0.98;;
4873;SDS011;2451;49.970;9.068;2023-01-15T12:47:28;3.80;;;1.13;;
4873;SDS011;2451;49.970;9.068;2023-01-15T12:50:21;2.38;;;0.90;;
4873;SDS011;2451;49.970;9.068;2023-01-15T12:56:00;2.83;;;0.90;;
4873;SDS011;2451;49.970;9.068;2023-01-15T12:58:42;3.35;;;0.80;;
4873;SDS011;2451;49.970;9.068;2023-01-15T13:04:14;3.13;;;0.75;;
4873;SDS011;2451;49.970;9.068;2023-01-15T13:06:47;2.28;;;0.80;;
4873;SDS011;2451;49.970;9.068;2023-01-15T13:11:46;3.38;;;0.70;;
4873;SDS011;2451;49.970;9.068;2023-01-15T13:14:15;2.85;;;0.90;;
4873;SDS011;2451;49.970;9.068;2023-01-15T13:16:51;0.88;;;0.50;;
4873;SDS011;2451;49.970;9.068;2023-01-15T13:21:53;3.40;;;0.90;;
4873;SDS011;2451;49.970;9.068;2023-01-15T13:29:38;1.80;;;1.02;;
4873;SDS011;2451;49.970;9.068;2023-01-15T13:32:29;2.95;;;0.82;;
4873;SDS011;2451;49.970;9.068;2023-01-15T13:35:09;1.38;;;0.70;;
4873;SDS011;2451;49.970;9.068;2023-01-15T13:37:46;6.78;;;1.00;;
4873;SDS011;2451;49.970;9.068;2023-01-15T13:40:34;3.60;;;1.20;;
4873;SDS011;2451;49.970;9.068;2023-01-15T13:43:05;2.47;;;0.77;;
4873;SDS011;2451;49.970;9.068;2023-01-15T13:45:35;1.05;;;0.65;;
4873;SDS011;2451;49.970;9.068;2023-01-15T13:48:06;2.03;;;0.80;;
4873;SDS011;2451;49.970;9.068;2023-01-15T13:50:39;1.23;;;0.82;;
4873;SDS011;2451;49.970;9.068;2023-01-15T13:56:12;2.08;;;0.77;;
4873;SDS011;2451;49.970;9.068;2023-01-15T13:59:00;3.42;;;1.20;;
4873;SDS011;2451;49.970;9.068;2023-01-15T14:03:57;3.58;;;0.73;;
4873;SDS011;2451;49.970;9.068;2023-01-15T14:06:33;2.92;;;1.08;;
4873;SDS011;2451;49.970;9.068;2023-01-15T14:22:53;3.00;;;1.10;;
4873;SDS011;2451;49.970;9.068;2023-01-15T14:31:25;2.20;;;1.02;;
4873;SDS011;2451;49.970;9.068;2023-01-15T14:34:10;1.90;;;1.00;;
4873;SDS011;2451;49.970;9.068;2023-01-15T14:36:38;2.22;;;0.93;;
4873;SDS011;2451;49.970;9.068;2023-01-15T14:39:21;5.57;;;1.30;;
4873;SDS011;2451;49.970;9.068;2023-01-15T14:41:57;2.85;;;1.00;;
4873;SDS011;2451;49.970;9.068;2023-01-15T14:44:54;3.65;;;1.13;;
4873;SDS011;2451;49.970;9.068;2023-01-15T14:47:24;3.58;;;1.30;;
4873;SDS011;2451;49.970;9.068;2023-01-15T14:50:00;3.85;;;1.20;;
4873;SDS011;2451;49.970;9.068;2023-01-15T14:52:45;1.90;;;0.90;;
4873;SDS011;2451;49.970;9.068;2023-01-15T14:55:12;4.80;;;1.33;;
4873;SDS011;2451;49.970;9.068;2023-01-15T14:57:41;5.13;;;1.15;;
4873;SDS011;2451;49.970;9.068;2023-01-15T15:00:11;3.67;;;1.30;;
4873;SDS011;2451;49.970;9.068;2023-01-15T15:02:42;3.63;;;1.25;;
4873;SDS011;2451;49.970;9.068;2023-01-15T15:05:13;3.45;;;1.10;;
4873;SDS011;2451;49.970;9.068;2023-01-15T15:07:42;4.10;;;1.08;;
4873;SDS011;2451;49.970;9.068;2023-01-15T15:13:01;3.03;;;1.30;;
4873;SDS011;2451;49.970;9.068;2023-01-15T15:15:34;5.38;;;1.40;;
4873;SDS011;2451;49.970;9.068;2023-01-15T15:18:21;4.07;;;1.27;;
4873;SDS011;2451;49.970;9.068;2023-01-15T15:21:04;5.20;;;1.65;;
4873;SDS011;2451;49.970;9.068;2023-01-15T15:26:42;4.68;;;1.70;;
4873;SDS011;2451;49.970;9.068;2023-01-15T15:31:38;3.25;;;1.08;;
4873;SDS011;2451;49.970;9.068;2023-01-15T15:34:16;3.38;;;1.10;;
4873;SDS011;2451;49.970;9.068;2023-01-15T15:36:47;6.00;;;1.33;;
4873;SDS011;2451;49.970;9.068;2023-01-15T15:39:15;3.60;;;1.35;;
4873;SDS011;2451;49.970;9.068;2023-01-15T15:41:44;3.38;;;1.15;;
4873;SDS011;2451;49.970;9.068;2023-01-15T15:44:37;4.65;;;1.33;;
4873;SDS011;2451;49.970;9.068;2023-01-15T15:47:38;7.95;;;1.63;;
4873;SDS011;2451;49.970;9.068;2023-01-15T15:50:25;5.68;;;1.60;;
4873;SDS011;2451;49.970;9.068;2023-01-15T15:52:53;4.05;;;1.80;;
4873;SDS011;2451;49.970;9.068;2023-01-15T15:55:21;6.10;;;1.60;;
4873;SDS011;2451;49.970;9.068;2023-01-15T15:57:48;6.25;;;1.40;;
4873;SDS011;2451;49.970;9.068;2023-01-15T16:00:27;4.45;;;1.45;;
4873;SDS011;2451;49.970;9.068;2023-01-15T16:02:55;6.15;;;1.40;;
4873;SDS011;2451;49.970;9.068;2023-01-15T16:05:25;5.20;;;1.60;;
4873;SDS011;2451;49.970;9.068;2023-01-15T16:07:54;3.50;;;1.13;;
4873;SDS011;2451;49.970;9.068;2023-01-15T16:12:50;2.92;;;1.33;;
4873;SDS011;2451;49.970;9.068;2023-01-15T16:15:19;3.60;;;1.42;;
4873;SDS011;2451;49.970;9.068;2023-01-15T16:17:50;4.82;;;1.60;;
4873;SDS011;2451;49.970;9.068;2023-01-15T16:20:17;3.20;;;1.20;;
4873;SDS011;2451;49.970;9.068;2023-01-15T16:22:48;4.90;;;1.30;;
4873;SDS011;2451;49.970;9.068;2023-01-15T16:25:38;2.55;;;1.30;;
4873;SDS011;2451;49.970;9.068;2023-01-15T16:28:06;4.47;;;1.38;;
4873;SDS011;2451;49.970;9.068;2023-01-15T16:30:53;4.18;;;1.30;;
4873;SDS011;2451;49.970;9.068;2023-01-15T16:33:29;2.60;;;1.20;;
4873;SDS011;2451;49.970;9.068;2023-01-15T16:35:55;5.32;;;1.60;;
4873;SDS011;2451;49.970;9.068;2023-01-15T16:38:25;5.60;;;1.75;;
4873;SDS011;2451;49.970;9.068;2023-01-15T16:40:51;6.97;;;1.75;;
4873;SDS011;2451;49.970;9.068;2023-01-15T16:43:18;4.75;;;1.90;;
4873;SDS011;2451;49.970;9.068;2023-01-15T16:50:44;5.20;;;1.45;;
4873;SDS011;2451;49.970;9.068;2023-01-15T16:53:30;4.45;;;1.48;;
4873;SDS011;2451;49.970;9.068;2023-01-15T16:55:56;3.75;;;1.63;;
4873;SDS011;2451;49.970;9.068;2023-01-15T16:58:36;4.57;;;1.52;;
4873;SDS011;2451;49.970;9.068;2023-01-15T17:07:03;4.60;;;1.45;;
4873;SDS011;2451;49.970;9.068;2023-01-15T17:09:32;3.67;;;1.65;;
4873;SDS011;2451;49.970;9.068;2023-01-15T17:12:02;3.55;;;1.42;;
4873;SDS011;2451;49.970;9.068;2023-01-15T17:14:39;5.90;;;1.52;;
4873;SDS011;2451;49.970;9.068;2023-01-15T17:17:15;4.40;;;1.60;;
4873;SDS011;2451;49.970;9.068;2023-01-15T17:19:49;5.47;;;1.67;;
4873;SDS011;2451;49.970;9.068;2023-01-15T17:22:20;7.03;;;1.58;;
4873;SDS011;2451;49.970;9.068;2023-01-15T17:24:52;4.63;;;1.60;;
4873;SDS011;2451;49.970;9.068;2023-01-15T17:27:23;5.43;;;1.42;;
4873;SDS011;2451;49.970;9.068;2023-01-15T17:29:49;5.43;;;1.48;;
4873;SDS011;2451;49.970;9.068;2023-01-15T17:32:16;3.67;;;1.60;;
4873;SDS011;2451;49.970;9.068;2023-01-15T17:34:46;4.30;;;1.63;;
4873;SDS011;2451;49.970;9.068;2023-01-15T17:37:12;3.97;;;1.55;;
4873;SDS011;2451;49.970;9.068;2023-01-15T17:39:38;7.15;;;1.80;;
4873;SDS011;2451;49.970;9.068;2023-01-15T17:42:09;4.95;;;1.55;;
4873;SDS011;2451;49.970;9.068;2023-01-15T17:44:45;5.10;;;2.25;;
4873;SDS011;2451;49.970;9.068;2023-01-15T17:47:10;5.85;;;1.70;;
4873;SDS011;2451;49.970;9.068;2023-01-15T17:49:36;6.35;;;2.30;;
4873;SDS011;2451;49.970;9.068;2023-01-15T17:52:06;6.70;;;1.95;;
4873;SDS011;2451;49.970;9.068;2023-01-15T17:54:37;7.07;;;1.80;;
4873;SDS011;2451;49.970;9.068;2023-01-15T17:57:21;5.35;;;2.05;;
4873;SDS011;2451;49.970;9.068;2023-01-15T18:00:07;7.95;;;1.90;;
4873;SDS011;2451;49.970;9.068;2023-01-15T18:02:53;4.57;;;1.92;;
4873;SDS011;2451;49.970;9.068;2023-01-15T18:05:38;7.40;;;2.00;;
4873;SDS011;2451;49.970;9.068;2023-01-15T18:08:04;4.78;;;1.90;;
4873;SDS011;2451;49.970;9.068;2023-01-15T18:10:33;7.03;;;2.17;;
4873;SDS011;2451;49.970;9.068;2023-01-15T18:12:59;5.20;;;1.90;;
4873;SDS011;2451;49.970;9.068;2023-01-15T18:15:26;7.80;;;2.17;;
4873;SDS011;2451;49.970;9.068;2023-01-15T18:17:52;5.22;;;2.17;;
4873;SDS011;2451;49.970;9.068;2023-01-15T18:20:18;5.28;;;1.70;;
4873;SDS011;2451;49.970;9.068;2023-01-15T18:22:44;5.32;;;1.80;;
4873;SDS011;2451;49.970;9.068;2023-01-15T18:25:09;8.10;;;2.20;;
4873;SDS011;2451;49.970;9.068;2023-01-15T18:27:35;5.00;;;2.00;;